createdAt,value
2018-10-21T00:01:04.032Z,6.62
2018-10-21T00:03:32.923Z,6.53
2018-10-21T00:06:01.801Z,6.49
2018-10-21T00:08:30.788Z,6.47
2018-10-21T00:10:59.675Z,6.46
2018-10-21T00:13:28.555Z,6.41
2018-10-21T00:15:57.456Z,6.40
2018-10-21T00:18:26.343Z,6.35
2018-10-21T00:20:55.221Z,6.30
2018-10-21T00:23:24.164Z,6.27
2018-10-21T00:25:53.092Z,6.38
2018-10-21T00:28:21.959Z,6.28
2018-10-21T00:30:50.838Z,6.16
2018-10-21T00:33:19.858Z,6.12
2018-10-21T00:35:48.787Z,6.08
2018-10-21T00:38:17.676Z,6.12
2018-10-21T00:40:46.571Z,6.11
2018-10-21T00:43:15.435Z,6.10
2018-10-21T00:45:44.299Z,6.09
2018-10-21T00:48:13.185Z,6.04
2018-10-21T00:50:42.096Z,6.02
2018-10-21T00:53:10.997Z,6.00
2018-10-21T00:55:39.885Z,6.00
2018-10-21T00:58:08.763Z,5.98
2018-10-21T01:00:37.652Z,5.99
2018-10-21T01:03:06.835Z,6.04
2018-10-21T01:05:35.704Z,6.01
2018-10-21T01:08:04.592Z,5.87
2018-10-21T01:10:33.468Z,5.80
2018-10-21T01:13:02.357Z,5.85
2018-10-21T01:15:31.245Z,5.97
2018-10-21T01:18:00.131Z,5.85
2018-10-21T01:20:29.103Z,5.81
2018-10-21T01:22:57.946Z,5.67
2018-10-21T01:25:26.845Z,5.71
2018-10-21T01:27:55.657Z,5.68
2018-10-21T01:30:24.501Z,5.62
2018-10-21T01:32:53.370Z,5.62
2018-10-21T01:35:22.213Z,5.61
2018-10-21T01:37:51.036Z,5.60
2018-10-21T01:40:26.977Z,5.63
2018-10-21T01:42:55.901Z,5.62
2018-10-21T01:45:25.353Z,5.63
2018-10-21T01:47:54.327Z,5.70
2018-10-21T01:50:23.802Z,5.70
2018-10-21T01:52:52.706Z,5.76
2018-10-21T01:55:21.585Z,5.77
2018-10-21T01:57:50.413Z,5.74
2018-10-21T02:00:19.341Z,5.75
2018-10-21T02:02:48.145Z,5.75
2018-10-21T02:05:16.994Z,5.70
2018-10-21T02:07:45.832Z,5.70
2018-10-21T02:10:14.670Z,5.68
2018-10-21T02:12:43.485Z,5.66
2018-10-21T02:15:13.104Z,5.64
2018-10-21T02:17:42.115Z,5.58
2018-10-21T02:20:12.117Z,5.55
2018-10-21T02:22:41.719Z,5.51
2018-10-21T02:25:10.721Z,5.50
2018-10-21T02:27:40.330Z,5.46
2018-10-21T02:30:13.183Z,5.45
2018-10-21T02:32:42.410Z,5.43
2018-10-21T02:35:12.107Z,5.40
2018-10-21T02:37:41.325Z,5.34
2018-10-21T02:41:28.346Z,5.29
2018-10-21T02:43:57.484Z,5.26
2018-10-21T02:46:26.590Z,5.31
2018-10-21T02:48:56.645Z,5.25
2018-10-21T02:51:25.999Z,5.20
2018-10-21T02:53:55.228Z,5.19
2018-10-21T02:56:24.293Z,5.20
2018-10-21T02:58:53.537Z,5.18
2018-10-21T03:01:22.775Z,5.26
2018-10-21T03:03:51.917Z,5.28
2018-10-21T03:06:21.217Z,5.27
2018-10-21T03:08:50.544Z,5.27
2018-10-21T03:11:19.670Z,5.23
2018-10-21T03:13:48.882Z,5.15
2018-10-21T03:16:17.963Z,5.11
2018-10-21T03:18:47.273Z,5.12
2018-10-21T03:21:16.523Z,5.15
2018-10-21T03:23:46.118Z,5.14
2018-10-21T03:26:15.263Z,5.11
2018-10-21T03:28:44.546Z,5.10
2018-10-21T03:31:13.814Z,5.08
2018-10-21T03:33:43.346Z,5.13
2018-10-21T03:36:12.301Z,5.19
2018-10-21T03:38:41.610Z,5.23
2018-10-21T03:41:10.857Z,5.24
2018-10-21T03:43:46.349Z,5.26
2018-10-21T03:46:16.282Z,5.26
2018-10-21T03:48:45.469Z,5.27
2018-10-21T03:51:14.984Z,5.36
2018-10-21T03:53:44.218Z,5.46
2018-10-21T03:56:13.565Z,5.50
2018-10-21T03:58:42.841Z,5.57
2018-10-21T04:01:12.188Z,5.63
2018-10-21T04:03:41.426Z,5.64
2018-10-21T04:06:10.663Z,5.69
2018-10-21T04:08:39.966Z,5.82
2018-10-21T04:11:09.166Z,5.99
2018-10-21T04:13:38.486Z,5.96
2018-10-21T04:16:07.810Z,5.92
2018-10-21T04:18:37.054Z,6.00
2018-10-21T04:21:06.321Z,5.99
2018-10-21T04:23:35.145Z,6.08
2018-10-21T04:26:03.985Z,6.20
2018-10-21T04:28:32.785Z,6.32
2018-10-21T04:31:01.596Z,6.35
2018-10-21T04:33:45.695Z,6.42
2018-10-21T04:36:18.425Z,6.41
2018-10-21T04:40:03.179Z,6.48
2018-10-21T04:42:32.037Z,6.51
2018-10-21T04:45:01.419Z,6.55
2018-10-21T04:47:30.577Z,6.56
2018-10-21T04:49:59.421Z,6.55
2018-10-21T04:52:29.316Z,6.56
2018-10-21T04:55:03.177Z,6.58
2018-10-21T04:57:32.065Z,6.55
2018-10-21T05:00:01.132Z,6.46
2018-10-21T05:02:30.925Z,6.42
2018-10-21T05:05:00.000Z,6.38
2018-10-21T05:07:28.853Z,6.46
2018-10-21T05:09:57.659Z,6.54
2018-10-21T05:12:26.529Z,6.58
2018-10-21T05:14:55.345Z,6.49
2018-10-21T05:17:24.165Z,6.57
2018-10-21T05:19:53.002Z,6.45
2018-10-21T05:22:21.825Z,6.47
2018-10-21T05:24:50.726Z,6.45
2018-10-21T05:27:19.538Z,6.44
2018-10-21T05:29:48.355Z,6.54
2018-10-21T05:32:17.185Z,6.75
2018-10-21T05:34:52.406Z,6.84
2018-10-21T05:37:21.229Z,6.88
2018-10-21T05:39:50.030Z,6.98
2018-10-21T05:42:18.831Z,7.04
2018-10-21T05:44:47.642Z,7.07
2018-10-21T05:47:16.516Z,7.01
2018-10-21T05:49:45.294Z,6.99
2018-10-21T05:52:14.130Z,6.93
2018-10-21T05:54:43.862Z,6.82
2018-10-21T05:57:12.682Z,6.83
2018-10-21T05:59:41.493Z,6.76
2018-10-21T06:02:10.345Z,6.80
2018-10-21T06:04:39.166Z,6.90
2018-10-21T06:07:08.119Z,6.95
2018-10-21T06:09:37.258Z,7.08
2018-10-21T06:12:06.443Z,7.13
2018-10-21T06:14:35.702Z,7.14
2018-10-21T06:17:10.872Z,7.18
2018-10-21T06:19:43.170Z,7.24
2018-10-21T06:22:12.562Z,7.34
2018-10-21T06:24:41.750Z,7.26
2018-10-21T06:27:10.959Z,7.37
2018-10-21T06:29:40.162Z,7.41
2018-10-21T06:32:09.341Z,7.39
2018-10-21T06:34:38.539Z,7.49
2018-10-21T06:37:07.803Z,7.63
2018-10-21T06:39:36.988Z,7.70
2018-10-21T06:42:06.377Z,7.72
2018-10-21T06:44:35.543Z,7.71
2018-10-21T06:47:04.784Z,7.80
2018-10-21T06:49:33.985Z,7.82
2018-10-21T06:52:03.222Z,7.90
2018-10-21T06:54:32.442Z,7.85
2018-10-21T06:57:01.740Z,7.89
2018-10-21T06:59:30.485Z,7.99
2018-10-21T07:01:59.294Z,8.10
2018-10-21T07:04:28.152Z,8.18
2018-10-21T07:06:56.945Z,8.31
2018-10-21T07:09:25.754Z,8.36
2018-10-21T07:11:54.564Z,8.39
2018-10-21T07:14:23.367Z,8.45
2018-10-21T07:16:52.292Z,8.49
2018-10-21T07:19:21.013Z,8.47
2018-10-21T07:21:49.822Z,8.56
2018-10-21T07:24:18.630Z,8.64
2018-10-21T07:26:47.474Z,8.65
2018-10-21T07:29:16.331Z,8.72
2018-10-21T07:31:45.141Z,8.85
2018-10-21T07:34:14.035Z,8.92
2018-10-21T07:36:42.801Z,8.94
2018-10-21T07:39:12.109Z,9.06
2018-10-21T07:41:40.917Z,9.02
2018-10-21T07:44:09.710Z,9.14
2018-10-21T07:46:38.841Z,9.19
2018-10-21T07:49:07.685Z,9.20
2018-10-21T07:51:36.481Z,9.26
2018-10-21T07:54:05.333Z,9.31
2018-10-21T07:56:34.154Z,9.32
2018-10-21T07:59:02.958Z,9.35
2018-10-21T08:01:31.801Z,9.47
2018-10-21T08:04:00.641Z,9.61
2018-10-21T08:06:40.515Z,9.71
2018-10-21T08:09:11.078Z,9.83
2018-10-21T08:11:39.932Z,9.99
2018-10-21T08:14:08.778Z,10.14
2018-10-21T08:16:37.589Z,10.35
2018-10-21T08:19:06.629Z,10.51
2018-10-21T08:21:35.441Z,10.69
2018-10-21T08:24:04.266Z,10.83
2018-10-21T08:26:33.102Z,10.96
2018-10-21T08:29:01.925Z,11.02
2018-10-21T08:31:30.745Z,11.20
2018-10-21T08:33:59.618Z,11.32
2018-10-21T08:36:28.398Z,11.26
2018-10-21T08:38:57.213Z,11.31
2018-10-21T08:41:26.022Z,11.32
2018-10-21T08:43:54.840Z,11.32
2018-10-21T08:46:23.851Z,11.38
2018-10-21T08:48:52.541Z,11.55
2018-10-21T08:51:21.355Z,11.58
2018-10-21T08:53:50.194Z,11.92
2018-10-21T08:56:18.987Z,12.38
2018-10-21T08:58:47.816Z,12.66
2018-10-21T09:01:16.620Z,12.88
2018-10-21T09:03:45.453Z,13.05
2018-10-21T09:06:14.274Z,12.78
2018-10-21T09:08:43.062Z,13.12
2018-10-21T09:11:11.898Z,13.40
2018-10-21T09:13:40.726Z,13.66
2018-10-21T09:16:09.608Z,13.81
2018-10-21T09:18:38.397Z,14.05
2018-10-21T09:21:07.201Z,14.29
2018-10-21T09:23:36.048Z,14.33
2018-10-21T09:26:04.862Z,14.39
2018-10-21T09:28:33.720Z,14.32
2018-10-21T09:31:02.643Z,14.17
2018-10-21T09:33:31.551Z,14.47
2018-10-21T09:36:00.472Z,14.49
2018-10-21T09:38:29.298Z,14.38
2018-10-21T09:40:58.256Z,14.66
2018-10-21T09:43:27.168Z,14.74
2018-10-21T09:45:56.086Z,15.07
2018-10-21T09:48:24.986Z,15.23
2018-10-21T09:50:53.818Z,15.39
2018-10-21T09:53:22.646Z,15.60
2018-10-21T09:55:51.461Z,15.56
2018-10-21T09:58:20.399Z,15.60
2018-10-21T10:00:54.451Z,15.99
2018-10-21T10:03:23.371Z,16.25
2018-10-21T10:05:52.266Z,16.46
2018-10-21T10:08:21.090Z,16.55
2018-10-21T10:10:49.925Z,16.31
2018-10-21T10:13:18.808Z,16.09
2018-10-21T10:15:47.586Z,16.21
2018-10-21T10:18:16.426Z,16.28
2018-10-21T10:20:45.228Z,16.58
2018-10-21T10:23:14.105Z,16.93
2018-10-21T10:25:42.940Z,16.61
2018-10-21T10:28:11.796Z,16.77
2018-10-21T10:30:40.650Z,16.93
2018-10-21T10:33:09.438Z,16.76
2018-10-21T10:35:38.251Z,17.03
2018-10-21T10:38:07.062Z,16.89
2018-10-21T10:40:35.910Z,16.88
2018-10-21T10:43:04.777Z,16.82
2018-10-21T10:45:33.554Z,17.06
2018-10-21T10:48:02.377Z,17.22
2018-10-21T10:50:31.195Z,17.26
2018-10-21T10:53:00.052Z,17.36
2018-10-21T10:55:33.991Z,17.70
2018-10-21T10:58:02.817Z,17.67
2018-10-21T11:00:31.654Z,17.38
2018-10-21T11:03:00.450Z,17.34
2018-10-21T11:05:29.306Z,17.31
2018-10-21T11:07:58.169Z,17.21
2018-10-21T11:10:26.994Z,17.24
2018-10-21T11:12:55.845Z,17.45
2018-10-21T11:15:24.730Z,17.70
2018-10-21T11:17:53.525Z,17.86
2018-10-21T11:20:22.352Z,17.71
2018-10-21T11:22:51.248Z,17.99
2018-10-21T11:25:20.057Z,17.64
2018-10-21T11:27:48.874Z,17.78
2018-10-21T11:30:17.697Z,17.95
2018-10-21T11:32:46.516Z,18.22
2018-10-21T11:35:15.394Z,18.05
2018-10-21T11:37:44.308Z,18.28
2018-10-21T11:40:13.152Z,18.60
2018-10-21T11:42:41.915Z,18.53
2018-10-21T11:45:10.786Z,18.85
2018-10-21T11:47:39.629Z,18.80
2018-10-21T11:50:08.537Z,18.85
2018-10-21T11:52:37.503Z,18.61
2018-10-21T11:55:07.490Z,18.68
2018-10-21T11:57:36.297Z,18.65
2018-10-21T12:00:05.549Z,18.16
2018-10-21T12:02:34.358Z,18.41
2018-10-21T12:05:03.174Z,18.95
2018-10-21T12:07:32.013Z,18.51
2018-10-21T12:10:00.839Z,18.42
2018-10-21T12:12:29.665Z,18.48
2018-10-21T12:14:58.477Z,18.76
2018-10-21T12:17:33.854Z,19.10
2018-10-21T12:20:02.784Z,19.02
2018-10-21T12:22:31.545Z,19.01
2018-10-21T12:25:00.430Z,18.93
2018-10-21T12:27:29.193Z,19.29
2018-10-21T12:29:58.002Z,19.07
2018-10-21T12:32:26.815Z,19.46
2018-10-21T12:34:55.629Z,19.54
2018-10-21T12:37:24.593Z,19.38
2018-10-21T12:39:53.386Z,19.50
2018-10-21T12:42:22.212Z,19.05
2018-10-21T12:44:51.005Z,19.63
2018-10-21T12:47:19.826Z,18.95
2018-10-21T12:49:48.625Z,19.01
2018-10-21T12:52:17.515Z,18.86
2018-10-21T12:54:46.269Z,19.18
2018-10-21T12:57:15.077Z,18.97
2018-10-21T12:59:43.901Z,19.05
2018-10-21T13:02:12.772Z,19.10
2018-10-21T13:04:41.597Z,19.07
2018-10-21T13:07:10.450Z,19.31
2018-10-21T13:09:39.301Z,18.97
2018-10-21T13:12:08.115Z,18.98
2018-10-21T13:14:36.981Z,18.04
2018-10-21T13:17:05.955Z,18.94
2018-10-21T13:19:34.767Z,18.97
2018-10-21T13:22:03.647Z,18.67
2018-10-21T13:24:32.481Z,18.66
2018-10-21T13:27:01.300Z,19.30
2018-10-21T13:29:30.114Z,18.95
2018-10-21T13:31:58.906Z,18.88
2018-10-21T13:34:27.740Z,18.64
2018-10-21T13:36:56.608Z,18.49
2018-10-21T13:39:25.565Z,18.55
2018-10-21T13:41:54.387Z,18.87
2018-10-21T13:44:23.224Z,18.96
2018-10-21T13:46:52.034Z,18.51
2018-10-21T13:49:20.830Z,18.35
2018-10-21T13:51:49.724Z,18.57
2018-10-21T13:54:18.478Z,18.40
2018-10-21T13:56:47.290Z,18.39
2018-10-21T13:59:16.133Z,18.33
2018-10-21T14:01:44.916Z,18.15
2018-10-21T14:04:13.775Z,18.02
2018-10-21T14:06:42.596Z,18.30
2018-10-21T14:09:13.199Z,18.21
2018-10-21T14:11:42.087Z,18.07
2018-10-21T14:14:11.896Z,18.05
2018-10-21T14:16:41.144Z,18.12
2018-10-21T14:19:10.292Z,17.31
2018-10-21T14:21:39.290Z,17.73
2018-10-21T14:24:08.136Z,17.66
2018-10-21T14:26:37.036Z,17.28
2018-10-21T14:29:05.850Z,16.80
2018-10-21T14:31:34.662Z,17.10
2018-10-21T14:34:03.466Z,17.28
2018-10-21T14:36:32.310Z,17.18
2018-10-21T14:39:01.149Z,17.31
2018-10-21T14:41:29.953Z,17.35
2018-10-21T14:43:58.775Z,17.47
2018-10-21T14:46:27.645Z,17.27
2018-10-21T14:48:56.453Z,17.49
2018-10-21T14:51:25.399Z,17.69
2018-10-21T14:53:54.200Z,17.28
2018-10-21T14:56:23.693Z,16.93
2018-10-21T14:58:53.267Z,17.03
2018-10-21T15:01:22.091Z,16.94
2018-10-21T15:03:51.014Z,17.63
2018-10-21T15:06:19.869Z,17.97
2018-10-21T15:08:48.710Z,17.73
2018-10-21T15:11:17.810Z,18.20
2018-10-21T15:13:46.848Z,18.04
2018-10-21T15:16:15.767Z,17.44
2018-10-21T15:18:44.590Z,17.00
2018-10-21T15:21:13.406Z,16.65
2018-10-21T15:23:42.234Z,16.62
2018-10-21T15:26:11.143Z,16.23
2018-10-21T15:28:39.980Z,15.71
2018-10-21T15:31:08.818Z,15.84
2018-10-21T15:33:37.694Z,16.04
2018-10-21T15:36:06.656Z,16.48
2018-10-21T15:38:35.527Z,16.89
2018-10-21T15:41:04.359Z,17.20
2018-10-21T15:43:33.303Z,16.96
2018-10-21T15:46:02.196Z,16.99
2018-10-21T15:48:31.343Z,16.65
2018-10-21T15:51:00.246Z,15.96
2018-10-21T15:53:29.110Z,15.60
2018-10-21T15:55:58.034Z,15.12
2018-10-21T15:58:26.842Z,14.74
2018-10-21T16:00:55.725Z,14.60
2018-10-21T16:03:24.702Z,14.38
2018-10-21T16:05:53.762Z,14.17
2018-10-21T16:08:22.693Z,13.98
2018-10-21T16:10:51.515Z,13.77
2018-10-21T16:13:20.393Z,13.46
2018-10-21T16:15:49.624Z,13.44
2018-10-21T16:18:19.074Z,13.26
2018-10-21T16:20:48.229Z,13.30
2018-10-21T16:23:17.045Z,13.08
2018-10-21T16:25:46.962Z,12.89
2018-10-21T16:28:15.789Z,12.75
2018-10-21T16:30:45.102Z,12.65
2018-10-21T16:33:13.917Z,12.49
2018-10-21T16:35:42.745Z,12.36
2018-10-21T16:38:11.562Z,12.32
2018-10-21T16:40:40.466Z,12.17
2018-10-21T16:43:09.313Z,12.03
2018-10-21T16:45:38.118Z,11.92
2018-10-21T16:48:07.319Z,11.77
2018-10-21T16:50:37.740Z,11.72
2018-10-21T16:53:05.340Z,11.53
2018-10-21T16:55:34.153Z,11.37
2018-10-21T16:58:03.066Z,11.25
2018-10-21T17:00:32.069Z,11.23
2018-10-21T17:03:00.773Z,11.13
2018-10-21T17:05:29.610Z,11.05
2018-10-21T17:07:58.486Z,10.98
2018-10-21T17:10:27.708Z,10.98
2018-10-21T17:12:56.253Z,10.92
2018-10-21T17:15:25.042Z,10.75
2018-10-21T17:17:53.910Z,10.68
2018-10-21T17:20:22.796Z,10.65
2018-10-21T17:22:51.618Z,10.60
2018-10-21T17:25:23.309Z,10.54
2018-10-21T17:27:52.128Z,10.50
2018-10-21T17:30:21.011Z,10.42
2018-10-21T17:32:49.815Z,10.46
2018-10-21T17:35:18.723Z,10.50
2018-10-21T17:37:47.537Z,10.44
2018-10-21T17:40:17.417Z,10.32
2018-10-21T17:42:46.174Z,10.22
2018-10-21T17:45:15.879Z,10.11
2018-10-21T17:47:44.776Z,9.99
2018-10-21T17:50:15.274Z,9.82
2018-10-21T17:52:45.163Z,9.74
2018-10-21T17:55:14.667Z,9.70
2018-10-21T17:57:43.431Z,9.69
2018-10-21T18:00:13.306Z,9.61
2018-10-21T18:02:42.203Z,9.55
2018-10-21T18:05:12.663Z,9.45
2018-10-21T18:07:42.081Z,9.44
2018-10-21T18:10:11.838Z,9.38
2018-10-21T18:12:40.685Z,9.33
2018-10-21T18:15:10.177Z,9.24
2018-10-21T18:17:39.794Z,9.14
2018-10-21T18:20:10.098Z,9.18
2018-10-21T18:22:39.041Z,9.11
2018-10-21T18:25:09.139Z,9.05
2018-10-21T18:27:38.149Z,9.02
2018-10-21T18:30:08.303Z,8.92
2018-10-21T18:32:37.166Z,8.81
2018-10-21T18:35:07.255Z,8.74
2018-10-21T18:37:36.151Z,8.68
2018-10-21T18:40:05.512Z,8.61
2018-10-21T18:42:34.390Z,8.53
2018-10-21T18:45:03.450Z,8.49
2018-10-21T18:47:32.372Z,8.47
2018-10-21T18:50:01.183Z,8.38
2018-10-21T18:52:29.990Z,8.37
2018-10-21T18:54:58.958Z,8.35
2018-10-21T18:57:28.271Z,8.35
2018-10-21T18:59:57.236Z,8.32
2018-10-21T19:02:26.199Z,8.20
2018-10-21T19:04:55.254Z,8.20
2018-10-21T19:07:25.129Z,8.11
2018-10-21T19:09:54.496Z,8.12
2018-10-21T19:12:23.441Z,8.00
2018-10-21T19:14:52.387Z,7.94
2018-10-21T19:17:21.263Z,7.83
2018-10-21T19:19:50.121Z,7.75
2018-10-21T19:22:19.097Z,7.72
2018-10-21T19:24:47.969Z,7.71
2018-10-21T19:27:17.015Z,7.69
2018-10-21T19:29:46.184Z,7.62
2018-10-21T19:32:15.443Z,7.52
2018-10-21T19:34:45.005Z,7.52
2018-10-21T19:37:15.219Z,7.64
2018-10-21T19:39:44.408Z,7.53
2018-10-21T19:42:13.711Z,7.48
2018-10-21T19:44:42.858Z,7.47
2018-10-21T19:47:12.331Z,7.41
2018-10-21T19:49:41.576Z,7.36
2018-10-21T19:52:11.058Z,7.42
2018-10-21T19:54:40.306Z,7.29
2018-10-21T19:57:10.529Z,7.11
2018-10-21T19:59:39.921Z,7.20
2018-10-21T20:02:08.804Z,7.16
2018-10-21T20:04:37.801Z,7.09
2018-10-21T20:07:07.217Z,7.04
2018-10-21T20:09:36.441Z,7.05
2018-10-21T20:12:05.465Z,6.99
2018-10-21T20:14:35.287Z,6.98
2018-10-21T20:17:04.125Z,6.97
2018-10-21T20:19:32.954Z,6.98
2018-10-21T20:22:01.866Z,7.10
2018-10-21T20:24:30.781Z,7.08
2018-10-21T20:26:59.624Z,7.02
2018-10-21T20:29:28.822Z,7.01
2018-10-21T20:31:57.787Z,7.01
2018-10-21T20:34:26.666Z,7.00
2018-10-21T20:36:55.517Z,6.85
2018-10-21T20:39:24.346Z,6.80
2018-10-21T20:41:53.190Z,6.79
2018-10-21T20:44:22.242Z,6.74
2018-10-21T20:46:51.124Z,6.71
2018-10-21T20:49:19.952Z,6.58
2018-10-21T20:51:48.789Z,6.61
2018-10-21T20:54:17.679Z,6.58
2018-10-21T20:56:46.590Z,6.50
2018-10-21T20:59:15.932Z,6.45
2018-10-21T21:01:44.866Z,6.39
2018-10-21T21:04:13.737Z,6.39
2018-10-21T21:06:42.678Z,6.29
2018-10-21T21:09:11.529Z,6.33
2018-10-21T21:11:40.508Z,6.31
2018-10-21T21:14:09.504Z,6.27
2018-10-21T21:16:38.352Z,6.24
2018-10-21T21:19:07.192Z,6.23
2018-10-21T21:21:36.246Z,6.25
2018-10-21T21:24:05.352Z,6.18
2018-10-21T21:26:34.194Z,6.12
2018-10-21T21:29:03.010Z,6.17
2018-10-21T21:31:31.885Z,6.15
2018-10-21T21:34:00.722Z,6.09
2018-10-21T21:36:29.561Z,6.09
2018-10-21T21:38:58.380Z,6.02
2018-10-21T21:41:27.249Z,6.08
2018-10-21T21:43:56.071Z,6.13
2018-10-21T21:46:25.009Z,6.22
2018-10-21T21:48:53.822Z,6.18
2018-10-21T21:51:22.805Z,6.14
2018-10-21T21:53:51.698Z,6.17
2018-10-21T21:56:20.550Z,6.17
2018-10-21T21:58:50.147Z,6.25
2018-10-21T22:01:18.975Z,6.23
2018-10-21T22:03:47.850Z,6.26
2018-10-21T22:06:16.776Z,6.24
2018-10-21T22:08:45.986Z,6.21
2018-10-21T22:11:14.868Z,6.20
2018-10-21T22:13:43.705Z,6.23
2018-10-21T22:16:13.113Z,6.25
2018-10-21T22:18:41.960Z,6.28
2018-10-21T22:21:10.926Z,6.21
2018-10-21T22:23:39.769Z,6.22
2018-10-21T22:26:08.753Z,6.12
2018-10-21T22:28:37.590Z,6.08
2018-10-21T22:31:06.458Z,6.06
2018-10-21T22:33:35.326Z,6.05
2018-10-21T22:36:04.408Z,6.07
2018-10-21T22:38:33.199Z,6.08
2018-10-21T22:41:02.056Z,6.01
2018-10-21T22:43:30.895Z,6.03
2018-10-21T22:45:59.799Z,6.04
2018-10-21T22:48:28.719Z,6.02
2018-10-21T22:50:57.566Z,6.02
2018-10-21T22:53:26.447Z,5.96
2018-10-21T22:55:55.360Z,5.94
2018-10-21T22:58:24.191Z,5.97
2018-10-21T23:01:03.416Z,6.04
2018-10-21T23:03:32.221Z,5.97
2018-10-21T23:06:01.159Z,6.00
2018-10-21T23:08:29.922Z,5.92
2018-10-21T23:10:58.893Z,5.96
2018-10-21T23:13:27.723Z,5.92
2018-10-21T23:15:56.575Z,5.88
2018-10-21T23:18:25.793Z,5.96
2018-10-21T23:20:54.641Z,5.88
2018-10-21T23:23:23.493Z,5.90
2018-10-21T23:25:52.328Z,5.91
2018-10-21T23:28:21.131Z,5.88
2018-10-21T23:30:49.946Z,5.71
2018-10-21T23:33:19.094Z,5.75
2018-10-21T23:35:47.948Z,5.76
2018-10-21T23:38:16.782Z,5.78
2018-10-21T23:40:45.634Z,5.76
2018-10-21T23:43:14.463Z,5.83
2018-10-21T23:45:43.279Z,5.83
2018-10-21T23:48:12.235Z,5.82
2018-10-21T23:50:41.401Z,5.76
2018-10-21T23:53:10.231Z,5.72
2018-10-21T23:55:39.190Z,5.68
2018-10-21T23:58:08.320Z,5.70
